KGA1 HKKI-HKJK
Flight info
| Callsign | KGA1 |
|---|---|
| Flight time | 0h 53m |
| Altitude | 11000 |
| Route | IBSUL1B IBSUL DCT NAKAT NAKAT2P |
| Aircraft | AEST/L-SDFGRY/S |
Departure
| Time | 2026-04-26 16:09 |
|---|---|
| Airport | Kisumu International Airport (HKKI) |
Arrival
| Time | 2026-04-26 17:02 |
|---|---|
| Airport | Jomo Kenyatta International Airport (HKJK) |
| Time | Latitude | Longitude | Altitude | Speed | Heading |
|---|---|---|---|---|---|
| 2026-04-26 15:57 | -0.08360 | 34.72824 | 3789 ft | 0 kts | 60° |
| 2026-04-26 16:04 | -0.08373 | 34.72872 | 3789 ft | 10 kts | 128° |
| 2026-04-26 16:04 | -0.08391 | 34.72916 | 3790 ft | 6 kts | 65° |
| 2026-04-26 16:04 | -0.08382 | 34.72928 | 3790 ft | 0 kts | 46° |
| 2026-04-26 16:05 | -0.08368 | 34.72948 | 3789 ft | 4 kts | 58° |
| 2026-04-26 16:05 | -0.08359 | 34.72964 | 3791 ft | 0 kts | 61° |
| 2026-04-26 16:05 | -0.08353 | 34.72976 | 3792 ft | 10 kts | 72° |
| 2026-04-26 16:05 | -0.08392 | 34.73031 | 3793 ft | 7 kts | 146° |
| 2026-04-26 16:06 | -0.08402 | 34.73038 | 3793 ft | 0 kts | 145° |
| 2026-04-26 16:06 | -0.08450 | 34.73062 | 3795 ft | 13 kts | 162° |
| 2026-04-26 16:06 | -0.08502 | 34.73044 | 3794 ft | 0 kts | 240° |
| 2026-04-26 16:07 | -0.08503 | 34.73044 | 3794 ft | 0 kts | 240° |
| 2026-04-26 16:07 | -0.08503 | 34.73043 | 3794 ft | 0 kts | 240° |
| 2026-04-26 16:08 | -0.08596 | 34.72872 | 3788 ft | 62 kts | 241° |
| 2026-04-26 16:08 | -0.08867 | 34.72359 | 3775 ft | 96 kts | 228° |
| 2026-04-26 16:09 | -0.09199 | 34.71778 | 3876 ft | 96 kts | 240° |
| 2026-04-26 16:09 | -0.09575 | 34.71166 | 4030 ft | 107 kts | 243° |
| 2026-04-26 16:09 | -0.09944 | 34.70491 | 4281 ft | 120 kts | 243° |
| 2026-04-26 16:09 | -0.10466 | 34.69776 | 4551 ft | 135 kts | 218° |
| 2026-04-26 16:10 | -0.11383 | 34.69541 | 4858 ft | 143 kts | 173° |
| 2026-04-26 16:10 | -0.12296 | 34.69949 | 5236 ft | 146 kts | 148° |
| 2026-04-26 16:10 | -0.13147 | 34.70516 | 5643 ft | 148 kts | 148° |
| 2026-04-26 16:10 | -0.13996 | 34.71067 | 6059 ft | 147 kts | 149° |
| 2026-04-26 16:11 | -0.14860 | 34.71607 | 6465 ft | 146 kts | 149° |
| 2026-04-26 16:11 | -0.15726 | 34.72146 | 6842 ft | 145 kts | 148° |
| 2026-04-26 16:11 | -0.16581 | 34.72675 | 7207 ft | 143 kts | 148° |
| 2026-04-26 16:11 | -0.17431 | 34.73200 | 7551 ft | 144 kts | 148° |
| 2026-04-26 16:12 | -0.18280 | 34.73723 | 7894 ft | 143 kts | 147° |
| 2026-04-26 16:12 | -0.19129 | 34.74248 | 8228 ft | 143 kts | 147° |
| 2026-04-26 16:12 | -0.20812 | 34.75290 | 8884 ft | 140 kts | 147° |
| 2026-04-26 16:13 | -0.21625 | 34.75791 | 9195 ft | 138 kts | 147° |
| 2026-04-26 16:13 | -0.22434 | 34.76289 | 9492 ft | 136 kts | 146° |
| 2026-04-26 16:13 | -0.23233 | 34.76784 | 9793 ft | 134 kts | 146° |
| 2026-04-26 16:13 | -0.24020 | 34.77272 | 10058 ft | 132 kts | 146° |
| 2026-04-26 16:14 | -0.24798 | 34.77754 | 10297 ft | 131 kts | 146° |
| 2026-04-26 16:14 | -0.25552 | 34.78219 | 10594 ft | 123 kts | 145° |
| 2026-04-26 16:14 | -0.27045 | 34.79142 | 10972 ft | 126 kts | 146° |
| 2026-04-26 16:15 | -0.27816 | 34.79618 | 11071 ft | 134 kts | 146° |
| 2026-04-26 16:15 | -0.28655 | 34.80135 | 11083 ft | 149 kts | 146° |
| 2026-04-26 16:15 | -0.29577 | 34.80704 | 11044 ft | 163 kts | 147° |
| 2026-04-26 16:16 | -0.31611 | 34.81955 | 11029 ft | 178 kts | 147° |
| 2026-04-26 16:16 | -0.32672 | 34.82608 | 11024 ft | 183 kts | 147° |
| 2026-04-26 16:16 | -0.33765 | 34.83284 | 11031 ft | 186 kts | 147° |
| 2026-04-26 16:16 | -0.34877 | 34.83971 | 11014 ft | 190 kts | 147° |
| 2026-04-26 16:17 | -0.36008 | 34.84667 | 11019 ft | 191 kts | 147° |
| 2026-04-26 16:17 | -0.37142 | 34.85368 | 11032 ft | 192 kts | 147° |
| 2026-04-26 16:17 | -0.38284 | 34.86073 | 11033 ft | 194 kts | 147° |
| 2026-04-26 16:17 | -0.39439 | 34.86785 | 11026 ft | 195 kts | 147° |
| 2026-04-26 16:18 | -0.40596 | 34.87499 | 11011 ft | 196 kts | 147° |
| 2026-04-26 16:18 | -0.42913 | 34.88929 | 11027 ft | 195 kts | 146° |
| 2026-04-26 16:19 | -0.44803 | 34.90849 | 11013 ft | 195 kts | 129° |
| 2026-04-26 16:19 | -0.45677 | 34.91884 | 11020 ft | 195 kts | 129° |
| 2026-04-26 16:19 | -0.47131 | 34.93607 | 11025 ft | 194 kts | 129° |
| 2026-04-26 16:20 | -0.48285 | 34.94973 | 11035 ft | 194 kts | 129° |
| 2026-04-26 16:20 | -0.50032 | 34.97040 | 11033 ft | 195 kts | 129° |
| 2026-04-26 16:20 | -0.50910 | 34.98077 | 11049 ft | 195 kts | 129° |
| 2026-04-26 16:21 | -0.51787 | 34.99114 | 11051 ft | 195 kts | 129° |
| 2026-04-26 16:21 | -0.52665 | 35.00155 | 11049 ft | 196 kts | 129° |
| 2026-04-26 16:21 | -0.53545 | 35.01197 | 11053 ft | 196 kts | 129° |
| 2026-04-26 16:21 | -0.54427 | 35.02237 | 11052 ft | 197 kts | 129° |
| 2026-04-26 16:22 | -0.55309 | 35.03282 | 11055 ft | 197 kts | 129° |
| 2026-04-26 16:22 | -0.56184 | 35.04316 | 11055 ft | 197 kts | 129° |
| 2026-04-26 16:22 | -0.57069 | 35.05363 | 11062 ft | 197 kts | 129° |
| 2026-04-26 16:22 | -0.57954 | 35.06411 | 11062 ft | 197 kts | 129° |
| 2026-04-26 16:23 | -0.58839 | 35.07458 | 11061 ft | 197 kts | 129° |
| 2026-04-26 16:23 | -0.59723 | 35.08505 | 11058 ft | 197 kts | 129° |
| 2026-04-26 16:23 | -0.60604 | 35.09546 | 11057 ft | 196 kts | 130° |
| 2026-04-26 16:23 | -0.61487 | 35.10589 | 11063 ft | 196 kts | 129° |
| 2026-04-26 16:24 | -0.62367 | 35.11630 | 11063 ft | 196 kts | 129° |
| 2026-04-26 16:24 | -0.63241 | 35.12665 | 11078 ft | 194 kts | 129° |
| 2026-04-26 16:24 | -0.64111 | 35.13693 | 11074 ft | 193 kts | 129° |
| 2026-04-26 16:24 | -0.64978 | 35.14720 | 11080 ft | 193 kts | 130° |
| 2026-04-26 16:25 | -0.65846 | 35.15747 | 11084 ft | 193 kts | 129° |
| 2026-04-26 16:25 | -0.66714 | 35.16774 | 11082 ft | 194 kts | 130° |
| 2026-04-26 16:25 | -0.67585 | 35.17804 | 11083 ft | 193 kts | 129° |
| 2026-04-26 16:25 | -0.68453 | 35.18830 | 11084 ft | 193 kts | 129° |
| 2026-04-26 16:26 | -0.69323 | 35.19858 | 11082 ft | 193 kts | 129° |
| 2026-04-26 16:26 | -0.69898 | 35.20537 | 11085 ft | 193 kts | 129° |
| 2026-04-26 16:26 | -0.71047 | 35.21898 | 11081 ft | 193 kts | 129° |
| 2026-04-26 16:26 | -0.71916 | 35.22927 | 11084 ft | 193 kts | 129° |
| 2026-04-26 16:27 | -0.72783 | 35.23954 | 11081 ft | 193 kts | 129° |
| 2026-04-26 16:27 | -0.73653 | 35.24983 | 11093 ft | 193 kts | 129° |
| 2026-04-26 16:27 | -0.74521 | 35.26014 | 11090 ft | 195 kts | 130° |
| 2026-04-26 16:27 | -0.75395 | 35.27045 | 11093 ft | 194 kts | 130° |
| 2026-04-26 16:28 | -0.76269 | 35.28075 | 11097 ft | 194 kts | 130° |
| 2026-04-26 16:28 | -0.77141 | 35.29108 | 11097 ft | 194 kts | 130° |
| 2026-04-26 16:28 | -0.78013 | 35.30140 | 11094 ft | 195 kts | 130° |
| 2026-04-26 16:28 | -0.78885 | 35.31174 | 11096 ft | 195 kts | 130° |
| 2026-04-26 16:29 | -0.79762 | 35.32209 | 11097 ft | 194 kts | 130° |
| 2026-04-26 16:29 | -0.80624 | 35.33228 | 11098 ft | 195 kts | 130° |
| 2026-04-26 16:29 | -0.81498 | 35.34262 | 11092 ft | 195 kts | 130° |
| 2026-04-26 16:29 | -0.82377 | 35.35300 | 11106 ft | 196 kts | 130° |
| 2026-04-26 16:30 | -0.83256 | 35.36344 | 11105 ft | 196 kts | 129° |
| 2026-04-26 16:30 | -0.83940 | 35.37514 | 11110 ft | 196 kts | 114° |
| 2026-04-26 16:30 | -0.84486 | 35.38755 | 11116 ft | 195 kts | 114° |
| 2026-04-26 16:30 | -0.85034 | 35.39997 | 11110 ft | 195 kts | 114° |
| 2026-04-26 16:31 | -0.85582 | 35.41239 | 11109 ft | 195 kts | 114° |
| 2026-04-26 16:31 | -0.86131 | 35.42482 | 11107 ft | 195 kts | 114° |
| 2026-04-26 16:31 | -0.86678 | 35.43724 | 11104 ft | 195 kts | 114° |
| 2026-04-26 16:31 | -0.87225 | 35.44961 | 11108 ft | 195 kts | 114° |
| 2026-04-26 16:32 | -0.87771 | 35.46199 | 11118 ft | 195 kts | 114° |
| 2026-04-26 16:32 | -0.88133 | 35.47020 | 11113 ft | 195 kts | 114° |
| 2026-04-26 16:32 | -0.88681 | 35.48259 | 11113 ft | 194 kts | 114° |
| 2026-04-26 16:32 | -0.89227 | 35.49493 | 11114 ft | 194 kts | 114° |
| 2026-04-26 16:33 | -0.89771 | 35.50730 | 11119 ft | 194 kts | 114° |
| 2026-04-26 16:33 | -0.90318 | 35.51968 | 11115 ft | 194 kts | 114° |
| 2026-04-26 16:33 | -0.90864 | 35.53205 | 11119 ft | 195 kts | 114° |
| 2026-04-26 16:33 | -0.91587 | 35.54846 | 11115 ft | 195 kts | 114° |
| 2026-04-26 16:34 | -0.91948 | 35.55666 | 11133 ft | 194 kts | 114° |
| 2026-04-26 16:34 | -0.92505 | 35.56920 | 11134 ft | 195 kts | 114° |
| 2026-04-26 16:34 | -0.93045 | 35.58141 | 11130 ft | 195 kts | 114° |
| 2026-04-26 16:34 | -0.93586 | 35.59370 | 11132 ft | 191 kts | 114° |
| 2026-04-26 16:35 | -0.94117 | 35.60575 | 11130 ft | 189 kts | 114° |
| 2026-04-26 16:35 | -0.94651 | 35.61779 | 11130 ft | 189 kts | 114° |
| 2026-04-26 16:35 | -0.95186 | 35.62997 | 11134 ft | 189 kts | 114° |
| 2026-04-26 16:35 | -0.95721 | 35.64208 | 11134 ft | 191 kts | 114° |
| 2026-04-26 16:36 | -0.96256 | 35.65416 | 11151 ft | 189 kts | 114° |
| 2026-04-26 16:36 | -0.96779 | 35.66608 | 11153 ft | 190 kts | 114° |
| 2026-04-26 16:36 | -0.97308 | 35.67809 | 11150 ft | 188 kts | 114° |
| 2026-04-26 16:36 | -0.97839 | 35.69005 | 11152 ft | 189 kts | 114° |
| 2026-04-26 16:37 | -0.98376 | 35.70212 | 11150 ft | 190 kts | 114° |
| 2026-04-26 16:37 | -0.98909 | 35.71427 | 11149 ft | 192 kts | 114° |
| 2026-04-26 16:37 | -0.99446 | 35.72651 | 11140 ft | 192 kts | 114° |
| 2026-04-26 16:37 | -0.99984 | 35.73870 | 11139 ft | 192 kts | 114° |
| 2026-04-26 16:38 | -1.00521 | 35.75082 | 11139 ft | 190 kts | 114° |
| 2026-04-26 16:38 | -1.01056 | 35.76283 | 11150 ft | 189 kts | 114° |
| 2026-04-26 16:38 | -1.01591 | 35.77494 | 11148 ft | 191 kts | 113° |
| 2026-04-26 16:38 | -1.02124 | 35.78709 | 11144 ft | 191 kts | 113° |
| 2026-04-26 16:39 | -1.02660 | 35.79927 | 11148 ft | 192 kts | 113° |
| 2026-04-26 16:39 | -1.03196 | 35.81143 | 11151 ft | 191 kts | 113° |
| 2026-04-26 16:39 | -1.03734 | 35.82359 | 11152 ft | 192 kts | 113° |
| 2026-04-26 16:39 | -1.04273 | 35.83576 | 11152 ft | 191 kts | 113° |
| 2026-04-26 16:40 | -1.04807 | 35.84788 | 11152 ft | 191 kts | 113° |
| 2026-04-26 16:40 | -1.05340 | 35.86004 | 11159 ft | 191 kts | 113° |
| 2026-04-26 16:40 | -1.05877 | 35.87220 | 11158 ft | 192 kts | 114° |
| 2026-04-26 16:40 | -1.06413 | 35.88433 | 11159 ft | 193 kts | 114° |
| 2026-04-26 16:41 | -1.06954 | 35.89657 | 11158 ft | 192 kts | 113° |
| 2026-04-26 16:41 | -1.07492 | 35.90882 | 11159 ft | 192 kts | 113° |
| 2026-04-26 16:41 | -1.08027 | 35.92098 | 11159 ft | 191 kts | 113° |
| 2026-04-26 16:41 | -1.08566 | 35.93314 | 11161 ft | 192 kts | 113° |
| 2026-04-26 16:42 | -1.09108 | 35.94539 | 11157 ft | 193 kts | 113° |
| 2026-04-26 16:42 | -1.09648 | 35.95768 | 11153 ft | 193 kts | 113° |
| 2026-04-26 16:42 | -1.10187 | 35.96992 | 11160 ft | 192 kts | 114° |
| 2026-04-26 16:42 | -1.10728 | 35.98213 | 11161 ft | 193 kts | 114° |
| 2026-04-26 16:43 | -1.11269 | 35.99433 | 11151 ft | 191 kts | 113° |
| 2026-04-26 16:43 | -1.11802 | 36.00645 | 11151 ft | 191 kts | 113° |
| 2026-04-26 16:43 | -1.12336 | 36.01863 | 11146 ft | 191 kts | 114° |
| 2026-04-26 16:43 | -1.12872 | 36.03072 | 11151 ft | 191 kts | 113° |
| 2026-04-26 16:44 | -1.13410 | 36.04286 | 11153 ft | 191 kts | 113° |
| 2026-04-26 16:44 | -1.13943 | 36.05499 | 11154 ft | 190 kts | 113° |
| 2026-04-26 16:44 | -1.14471 | 36.06699 | 11153 ft | 191 kts | 113° |
| 2026-04-26 16:44 | -1.15014 | 36.07926 | 11149 ft | 190 kts | 113° |
| 2026-04-26 16:45 | -1.15541 | 36.09118 | 11154 ft | 190 kts | 113° |
| 2026-04-26 16:45 | -1.16075 | 36.10328 | 11153 ft | 190 kts | 113° |
| 2026-04-26 16:45 | -1.16609 | 36.11542 | 11153 ft | 191 kts | 113° |
| 2026-04-26 16:45 | -1.17146 | 36.12763 | 11152 ft | 191 kts | 114° |
| 2026-04-26 16:46 | -1.17679 | 36.13970 | 11154 ft | 190 kts | 114° |
| 2026-04-26 16:46 | -1.18215 | 36.15180 | 11155 ft | 189 kts | 114° |
| 2026-04-26 16:46 | -1.18750 | 36.16387 | 11154 ft | 190 kts | 113° |
| 2026-04-26 16:46 | -1.19283 | 36.17599 | 11157 ft | 191 kts | 114° |
| 2026-04-26 16:47 | -1.19819 | 36.18815 | 11155 ft | 191 kts | 113° |
| 2026-04-26 16:47 | -1.20352 | 36.20020 | 11150 ft | 192 kts | 113° |
| 2026-04-26 16:47 | -1.20889 | 36.21241 | 11155 ft | 191 kts | 113° |
| 2026-04-26 16:47 | -1.21426 | 36.22454 | 11154 ft | 191 kts | 113° |
| 2026-04-26 16:48 | -1.21962 | 36.23669 | 11154 ft | 190 kts | 113° |
| 2026-04-26 16:48 | -1.22495 | 36.24878 | 11156 ft | 191 kts | 113° |
| 2026-04-26 16:48 | -1.23032 | 36.26097 | 11145 ft | 192 kts | 113° |
| 2026-04-26 16:48 | -1.23571 | 36.27320 | 11134 ft | 193 kts | 113° |
| 2026-04-26 16:49 | -1.24114 | 36.28550 | 11136 ft | 193 kts | 113° |
| 2026-04-26 16:49 | -1.24656 | 36.29778 | 11136 ft | 193 kts | 113° |
| 2026-04-26 16:49 | -1.25197 | 36.31006 | 11138 ft | 193 kts | 113° |
| 2026-04-26 16:49 | -1.25739 | 36.32232 | 11138 ft | 193 kts | 113° |
| 2026-04-26 16:50 | -1.26281 | 36.33462 | 11139 ft | 194 kts | 113° |
| 2026-04-26 16:50 | -1.26823 | 36.34691 | 11135 ft | 194 kts | 114° |
| 2026-04-26 16:50 | -1.27371 | 36.35933 | 11117 ft | 196 kts | 113° |
| 2026-04-26 16:50 | -1.27929 | 36.37197 | 10914 ft | 206 kts | 114° |
| 2026-04-26 16:51 | -1.28522 | 36.38539 | 10752 ft | 211 kts | 113° |
| 2026-04-26 16:51 | -1.29111 | 36.39870 | 10599 ft | 213 kts | 113° |
| 2026-04-26 16:51 | -1.29715 | 36.41243 | 10375 ft | 219 kts | 113° |
| 2026-04-26 16:51 | -1.30338 | 36.42654 | 10148 ft | 223 kts | 114° |
| 2026-04-26 16:52 | -1.30964 | 36.44068 | 10106 ft | 219 kts | 113° |
| 2026-04-26 16:52 | -1.31363 | 36.44979 | 10132 ft | 214 kts | 113° |
| 2026-04-26 16:52 | -1.32147 | 36.46757 | 10187 ft | 206 kts | 113° |
| 2026-04-26 16:52 | -1.32725 | 36.48069 | 10164 ft | 205 kts | 113° |
| 2026-04-26 16:53 | -1.33300 | 36.49364 | 10160 ft | 203 kts | 113° |
| 2026-04-26 16:53 | -1.33865 | 36.50657 | 10169 ft | 202 kts | 113° |
| 2026-04-26 16:53 | -1.34426 | 36.51929 | 10169 ft | 203 kts | 114° |
| 2026-04-26 16:53 | -1.35004 | 36.53236 | 10178 ft | 202 kts | 114° |
| 2026-04-26 16:54 | -1.35562 | 36.54500 | 10150 ft | 201 kts | 114° |
| 2026-04-26 16:54 | -1.36126 | 36.55785 | 10160 ft | 201 kts | 114° |
| 2026-04-26 16:54 | -1.36690 | 36.57062 | 10200 ft | 201 kts | 114° |
| 2026-04-26 16:54 | -1.37255 | 36.58341 | 10197 ft | 201 kts | 114° |
| 2026-04-26 16:55 | -1.37820 | 36.59621 | 10196 ft | 201 kts | 114° |
| 2026-04-26 16:55 | -1.38383 | 36.60898 | 10209 ft | 201 kts | 114° |
| 2026-04-26 16:55 | -1.38952 | 36.62183 | 10207 ft | 201 kts | 114° |
| 2026-04-26 16:55 | -1.39515 | 36.63468 | 10213 ft | 201 kts | 113° |
| 2026-04-26 16:56 | -1.40374 | 36.66143 | 9917 ft | 215 kts | 107° |
| 2026-04-26 16:56 | -1.40822 | 36.67644 | 9456 ft | 229 kts | 107° |
| 2026-04-26 16:56 | -1.41279 | 36.69177 | 9089 ft | 236 kts | 107° |
| 2026-04-26 16:57 | -1.41748 | 36.70726 | 9045 ft | 227 kts | 107° |
| 2026-04-26 16:57 | -1.42193 | 36.72211 | 9088 ft | 219 kts | 107° |
| 2026-04-26 16:57 | -1.43044 | 36.75051 | 9119 ft | 213 kts | 105° |
| 2026-04-26 16:58 | -1.43150 | 36.76563 | 8800 ft | 224 kts | 83° |
| 2026-04-26 16:58 | -1.42882 | 36.77571 | 8594 ft | 230 kts | 68° |
| 2026-04-26 16:58 | -1.40713 | 36.80691 | 7979 ft | 236 kts | 55° |
| 2026-04-26 16:59 | -1.39735 | 36.82037 | 7800 ft | 237 kts | 56° |
| 2026-04-26 16:59 | -1.37798 | 36.84705 | 7213 ft | 227 kts | 55° |
| 2026-04-26 17:00 | -1.36150 | 36.86974 | 6578 ft | 161 kts | 56° |
| 2026-04-26 17:00 | -1.35191 | 36.88289 | 6184 ft | 84 kts | 57° |
| 2026-04-26 17:00 | -1.34859 | 36.88749 | 6104 ft | 82 kts | 57° |
| 2026-04-26 17:01 | -1.34505 | 36.89241 | 6002 ft | 94 kts | 55° |
| 2026-04-26 17:01 | -1.34093 | 36.89808 | 5821 ft | 107 kts | 56° |
| 2026-04-26 17:01 | -1.33650 | 36.90418 | 5685 ft | 110 kts | 56° |
| 2026-04-26 17:01 | -1.33187 | 36.91052 | 5551 ft | 114 kts | 54° |
| 2026-04-26 17:02 | -1.32747 | 36.91657 | 5414 ft | 104 kts | 52° |
| 2026-04-26 17:02 | -1.32359 | 36.92199 | 5349 ft | 82 kts | 53° |
| 2026-04-26 17:02 | -1.32083 | 36.92562 | 5334 ft | 53 kts | 53° |
| 2026-04-26 17:02 | -1.31957 | 36.92787 | 5332 ft | 26 kts | 116° |
| 2026-04-26 17:03 | -1.32049 | 36.92869 | 5333 ft | 13 kts | 145° |
| 2026-04-26 17:03 | -1.32111 | 36.92913 | 5333 ft | 9 kts | 146° |
| 2026-04-26 17:03 | -1.32152 | 36.92939 | 5334 ft | 5 kts | 149° |
| 2026-04-26 17:03 | -1.32175 | 36.92950 | 5334 ft | 5 kts | 166° |
| 2026-04-26 17:04 | -1.32234 | 36.92909 | 5334 ft | 12 kts | 234° |
| 2026-04-26 17:04 | -1.32269 | 36.92863 | 5334 ft | 7 kts | 232° |
| 2026-04-26 17:04 | -1.32295 | 36.92829 | 5335 ft | 5 kts | 233° |
| 2026-04-26 17:04 | -1.32314 | 36.92803 | 5335 ft | 7 kts | 234° |
| 2026-04-26 17:05 | -1.32363 | 36.92752 | 5331 ft | 10 kts | 202° |
| 2026-04-26 17:05 | -1.32442 | 36.92775 | 5335 ft | 18 kts | 144° |
| 2026-04-26 17:05 | -1.32565 | 36.92860 | 5335 ft | 19 kts | 144° |
| 2026-04-26 17:05 | -1.32657 | 36.92924 | 5335 ft | 13 kts | 146° |
| 2026-04-26 17:06 | -1.32721 | 36.92967 | 5335 ft | 9 kts | 143° |
| 2026-04-26 17:06 | -1.32760 | 36.92996 | 5335 ft | 5 kts | 140° |
| 2026-04-26 17:06 | -1.32784 | 36.93015 | 5332 ft | 4 kts | 141° |
| 2026-04-26 17:06 | -1.32854 | 36.93066 | 5335 ft | 13 kts | 146° |
| 2026-04-26 17:07 | -1.32865 | 36.93113 | 5328 ft | 0 kts | 54° |